CheckWX is a tool to help pilots better visualize weather data.  It is not intended as a substitute for an official pre-flight weather briefing.

18:10:12 UTC

KLOT METAR
Lewis University Airport
Chicago/Romeoville, Illinois, USA
Current

15 mins ago

KLOT 021755Z AUTO 09005KT 10SM CLR 31/16 A3005 RMK AO2 T03080158 10310 20218
Observed
Jul-2 @ 17:55 UTC
Wind
  • 090° at 5 KTS
Visibility
10 SM
Flight Rules
VFR
Cloud Levels
  • Clear skies
Temperature
31°C / 88°F
Dewpoint
16°C / 61°F
Humidity
40%
Altimeter
30.05" Hg
Pressure
1017.62 hPa
Previous

35 mins ago

KLOT 021735Z AUTO 11006KT 10SM SCT060 31/16 A3006 RMK AO2 T03090157
Observed
Jul-2 @ 17:35 UTC
Wind
  • 110° at 6 KTS
Visibility
10 SM
Flight Rules
VFR
Cloud Levels
  • Scattered at 6,000' AGL
Temperature
31°C / 88°F
Dewpoint
16°C / 61°F
Humidity
40%
Altimeter
30.06" Hg
Pressure
1017.92 hPa
Previous

55 mins ago

KLOT 021715Z AUTO 08007KT 10SM SCT060 30/17 A3005 RMK AO2 T03010165
Observed
Jul-2 @ 17:15 UTC
Wind
  • 080° at 7 KTS
Visibility
10 SM
Flight Rules
VFR
Cloud Levels
  • Scattered at 6,000' AGL
Temperature
30°C / 86°F
Dewpoint
16°C / 61°F
Humidity
43%
Altimeter
30.05" Hg
Pressure
1017.62 hPa